Time;durP1;ratioP1;P1;durP2;ratioP2;P2;SDS_P1;SDS_P2;PMS_P1;PMS_P2;Temp;Humidity;BMP_temperature;BMP_pressure;BME280_temperature;BME280_humidity;BME280_pressure;Samples;Min_cycle;Max_cycle;Signal;HPM_P1;HPM_P2
2021/05/26 01:25:12;;;;;;;5.20;4.65;;;;;;;35.42;22.95;94585.81;5093306;28;20354;-59
2021/05/26 01:27:40;;;;;;;5.18;4.68;;;;;;;35.71;22.83;94595.69;5093391;28;20356;-64
2021/05/26 01:30:15;;;;;;;6.10;4.75;;;;;;;35.94;22.38;94586.34;5094558;28;20048;-60
2021/05/26 01:32:49;;;;;;;5.22;4.63;;;;;;;36.46;22.03;94595.69;5093484;28;20052;-65
2021/05/26 01:35:19;;;;;;;5.50;4.45;;;;;;;35.96;22.46;94590.13;5093665;28;20370;-63
2021/05/26 01:37:48;;;;;;;8.40;4.95;;;;;;;36.27;22.15;94586.66;5094489;28;20051;-66
2021/05/26 01:40:17;;;;;;;7.22;4.63;;;;;;;35.95;22.29;94593.31;5094594;28;20048;-65
2021/05/26 01:42:45;;;;;;;7.10;4.32;;;;;;;36.06;22.35;94591.69;5076773;28;20454;-62
2021/05/26 01:45:17;;;;;;;5.28;4.78;;;;;;;35.46;22.88;94591.13;5093551;28;20052;-64
2021/05/26 01:47:48;;;;;;;6.93;4.30;;;;;;;36.10;22.13;94589.59;5093260;28;20075;-57
2021/05/26 01:50:21;;;;;;;7.20;4.70;;;;;;;35.91;22.60;94589.94;5094808;28;20047;-55
2021/05/26 01:53:05;;;;;;;6.43;5.10;;;;;;;35.37;23.24;94589.06;5094936;28;20044;-60
2021/05/26 01:55:39;;;;;;;8.85;4.60;;;;;;;34.00;24.97;94590.22;5074568;28;20447;-56
2021/05/26 01:58:19;;;;;;;5.15;4.70;;;;;;;34.41;24.41;94588.69;5071339;28;20044;-55
2021/05/26 02:00:49;;;;;;;5.80;5.30;;;;;;;34.49;24.34;94589.97;5074090;28;20045;-56
2021/05/26 02:03:18;;;;;;;5.55;4.57;;;;;;;35.20;23.50;94590.44;5078653;28;20054;-56
2021/05/26 02:06:06;;;;;;;6.68;5.10;;;;;;;35.48;22.84;94589.47;5092993;28;20048;-59
2021/05/26 02:08:35;;;;;;;5.80;4.95;;;;;;;36.05;22.30;94587.44;5031165;28;20041;-57
2021/05/26 02:13:48;;;;;;;6.70;4.55;;;;;;;36.73;21.69;94584.88;5058784;28;20075;-63
2021/05/26 02:16:15;;;;;;;4.93;4.38;;;;;;;36.01;22.17;94586.06;5047835;28;20049;-63
2021/05/26 02:18:44;;;;;;;7.57;4.57;;;;;;;36.13;21.81;94580.53;5070501;28;20052;-56
2021/05/26 02:21:11;;;;;;;7.95;4.22;;;;;;;36.22;21.46;94585.28;5071817;28;20048;-59
2021/05/26 02:23:39;;;;;;;7.10;4.63;;;;;;;35.93;21.86;94584.84;5059360;28;20047;-65
2021/05/26 02:26:06;;;;;;;5.15;4.05;;;;;;;36.68;20.84;94582.75;5075167;28;20485;-60
2021/05/26 02:28:33;;;;;;;6.55;4.53;;;;;;;35.88;22.36;94579.94;5068912;28;20048;-58
2021/05/26 02:31:02;;;;;;;6.55;4.50;;;;;;;36.38;21.51;94576.13;5091959;28;20051;-60
2021/05/26 02:33:30;;;;;;;5.15;4.07;;;;;;;35.99;21.70;94581.09;5073846;28;20044;-64
2021/05/26 02:35:57;;;;;;;4.45;4.05;;;;;;;35.57;22.73;94591.50;5091721;28;20048;-60
2021/05/26 02:38:24;;;;;;;5.97;4.63;;;;;;;35.90;21.93;94586.44;5092003;28;20051;-58
2021/05/26 02:40:52;;;;;;;6.10;4.63;;;;;;;35.38;22.72;94585.16;5117107;28;20047;-70
2021/05/26 02:43:22;;;;;;;5.20;4.30;;;;;;;35.79;22.23;94586.06;5114834;28;20462;-61
2021/05/26 02:45:52;;;;;;;5.22;4.22;;;;;;;36.51;21.32;94595.84;5097655;28;20054;-61
2021/05/26 02:48:20;;;;;;;5.50;4.22;;;;;;;36.37;21.63;94599.13;5097940;28;20047;-63
2021/05/26 02:50:47;;;;;;;5.43;4.07;;;;;;;35.77;22.19;94610.22;5097861;28;20055;-58
2021/05/26 02:53:16;;;;;;;5.55;4.15;;;;;;;36.81;21.17;94601.72;5096045;28;20366;-56
2021/05/26 02:55:43;;;;;;;6.85;4.20;;;;;;;36.67;21.30;94603.75;5086147;28;20062;-68
2021/05/26 02:58:29;;;;;;;5.60;4.38;;;;;;;36.06;21.79;94609.97;5117205;28;20044;-57
2021/05/26 03:01:28;;;;;;;6.18;4.43;;;;;;;36.18;21.71;94614.59;5083645;28;20062;-59
2021/05/26 03:04:07;;;;;;;4.88;4.40;;;;;;;35.55;22.24;94615.66;5106764;28;20047;-64
2021/05/26 03:06:40;;;;;;;6.53;4.47;;;;;;;35.69;22.44;94625.28;5097685;28;20047;-57
2021/05/26 03:09:08;;;;;;;4.95;4.05;;;;;;;36.01;21.74;94633.06;5079680;28;20054;-58
2021/05/26 03:11:44;;;;;;;5.53;4.30;;;;;;;36.77;21.26;94633.75;5097705;28;20056;-61
2021/05/26 03:14:24;;;;;;;5.38;4.68;;;;;;;36.78;21.02;94640.72;5096981;28;20367;-57
2021/05/26 03:16:55;;;;;;;5.40;4.50;;;;;;;36.29;21.31;94644.88;5096989;28;20047;-59
2021/05/26 03:19:24;;;;;;;5.00;4.40;;;;;;;36.35;21.27;94647.78;5097472;28;20048;-59
2021/05/26 03:21:57;;;;;;;6.50;4.80;;;;;;;36.01;21.95;94656.78;5079535;28;20043;-57
2021/05/26 03:24:48;;;;;;;5.55;5.07;;;;;;;35.93;22.21;94658.25;5095839;28;20043;-60
2021/05/26 03:27:16;;;;;;;7.18;5.55;;;;;;;36.44;21.22;94658.75;5079198;28;20056;-61
2021/05/26 03:29:43;;;;;;;8.43;5.28;;;;;;;36.03;21.56;94660.59;5097040;28;20150;-61
2021/05/26 03:32:10;;;;;;;6.93;5.40;;;;;;;36.12;21.80;94655.19;5097016;28;20055;-57
2021/05/26 03:34:42;;;;;;;9.02;5.75;;;;;;;36.83;21.09;94668.16;5078110;28;20760;-57
2021/05/26 03:37:09;;;;;;;6.70;5.60;;;;;;;35.74;22.33;94666.25;5096622;28;20044;-59
2021/05/26 03:39:57;;;;;;;6.72;5.80;;;;;;;35.76;22.23;94661.13;5068072;28;20053;-58
2021/05/26 03:42:24;;;;;;;7.32;6.15;;;;;;;36.21;21.97;94670.09;5054285;28;20059;-68
2021/05/26 03:44:52;;;;;;;9.38;6.88;;;;;;;35.87;22.21;94668.16;5054016;28;20056;-59
2021/05/26 03:47:20;;;;;;;8.35;7.32;;;;;;;36.08;21.85;94675.56;5037286;28;20075;-66
2021/05/26 03:49:48;;;;;;;7.85;6.90;;;;;;;35.45;22.94;94677.34;5054143;28;20044;-61
2021/05/26 03:52:16;;;;;;;9.75;7.07;;;;;;;34.98;23.52;94676.53;5053095;28;20059;-63
2021/05/26 03:54:46;;;;;;;8.70;7.25;;;;;;;35.59;22.80;94691.63;5067558;28;20064;-59
2021/05/26 03:57:14;;;;;;;8.68;6.90;;;;;;;36.30;21.94;94689.16;5039289;28;20045;-63
2021/05/26 03:59:46;;;;;;;;;;;;;;;35.42;22.89;94694.53;5074380;28;20219;-66
2021/05/26 04:02:13;;;;;;;8.27;7.47;;;;;;;36.01;22.24;94689.44;5074022;28;19967;-63
2021/05/26 04:04:41;;;;;;;7.97;7.20;;;;;;;35.68;22.88;94694.44;5059952;28;20059;-64
2021/05/26 04:07:16;;;;;;;7.80;6.78;;;;;;;36.01;22.39;94701.09;5053538;28;20060;-56
2021/05/26 04:09:46;;;;;;;6.80;6.13;;;;;;;36.04;22.43;94700.19;5037143;28;20423;-60
2021/05/26 04:12:14;;;;;;;9.77;6.88;;;;;;;35.97;22.50;94694.25;5053675;28;20051;-64
2021/05/26 04:15:11;;;;;;;8.05;7.22;;;;;;;36.04;22.24;94704.88;5036241;28;20049;-59
2021/05/26 04:18:04;;;;;;;7.72;6.40;;;;;;;36.43;21.96;94709.72;5083038;28;20048;-58
2021/05/26 04:20:32;;;;;;;9.20;6.45;;;;;;;36.06;22.29;94710.63;5078328;28;20052;-64
2021/05/26 04:23:00;;;;;;;8.30;6.15;;;;;;;36.11;21.88;94704.63;5095802;28;20454;-59
2021/05/26 04:25:29;;;;;;;6.28;5.55;;;;;;;35.81;22.45;94714.19;5095119;28;20051;-58
2021/05/26 04:27:56;;;;;;;8.85;6.30;;;;;;;35.41;22.66;94714.75;5095870;28;20064;-59
2021/05/26 04:30:24;;;;;;;6.68;4.63;;;;;;;35.21;22.64;94711.47;5095578;28;20036;-58
2021/05/26 04:32:55;;;;;;;7.10;5.00;;;;;;;34.62;23.06;94710.94;5065963;28;20040;-64
2021/05/26 04:35:22;;;;;;;6.07;4.30;;;;;;;35.04;22.37;94707.38;5066042;28;20051;-51
2021/05/26 04:37:49;;;;;;;5.22;4.20;;;;;;;34.40;22.97;94715.44;5095538;28;20055;-59
2021/05/26 04:40:17;;;;;;;4.90;4.47;;;;;;;35.13;22.06;94710.97;5095621;28;20074;-61
2021/05/26 04:42:45;;;;;;;5.57;4.50;;;;;;;35.45;21.80;94720.81;5094821;28;20040;-56
2021/05/26 04:45:13;;;;;;;6.53;4.20;;;;;;;35.49;21.26;94718.75;5095103;28;20054;-59
2021/05/26 04:47:40;;;;;;;4.90;4.40;;;;;;;35.07;21.80;94720.81;5095295;28;20079;-73
2021/05/26 04:50:08;;;;;;;5.50;4.85;;;;;;;34.98;21.73;94725.41;5093843;28;20055;-58
2021/05/26 04:52:35;;;;;;;6.32;5.13;;;;;;;34.55;22.33;94726.63;5115567;28;20044;-53
2021/05/26 04:55:03;;;;;;;6.65;5.43;;;;;;;34.97;21.79;94734.75;5094776;28;20074;-59
2021/05/26 04:57:30;;;;;;;9.30;5.65;;;;;;;34.87;21.69;94731.94;5096614;28;20090;-58
2021/05/26 04:59:57;;;;;;;6.72;5.05;;;;;;;34.48;22.17;94732.28;5095317;28;20454;-52
2021/05/26 05:02:24;;;;;;;9.70;5.13;;;;;;;34.64;21.92;94729.50;5095124;28;20451;-51
2021/05/26 05:04:52;;;;;;;6.13;4.93;;;;;;;34.69;21.80;94736.34;5087132;28;20055;-67
2021/05/26 05:07:21;;;;;;;6.25;5.65;;;;;;;34.68;21.86;94734.81;5091519;28;20051;-50
2021/05/26 05:09:49;;;;;;;8.98;5.28;;;;;;;34.50;21.81;94733.38;5095106;28;20044;-49
2021/05/26 05:12:16;;;;;;;7.18;5.13;;;;;;;34.59;21.74;94738.16;5095035;28;20047;-61
2021/05/26 05:14:44;;;;;;;6.68;4.70;;;;;;;34.25;21.97;94739.47;5094690;28;20044;-57
2021/05/26 05:17:12;;;;;;;6.65;4.85;;;;;;;34.45;21.59;94736.63;5094770;28;20374;-52
2021/05/26 05:19:39;;;;;;;6.75;5.10;;;;;;;35.52;20.42;94742.31;5095009;28;20039;-61
2021/05/26 05:22:10;;;;;;;7.93;5.07;;;;;;;34.56;21.75;94739.78;5093971;28;20399;-53
2021/05/26 05:24:37;;;;;;;11.15;5.03;;;;;;;34.62;21.48;94748.16;5094161;28;20039;-52
2021/05/26 05:27:04;;;;;;;7.53;4.65;;;;;;;34.83;21.06;94749.47;5094436;28;20048;-65
2021/05/26 05:29:32;;;;;;;6.72;4.78;;;;;;;34.49;21.45;94744.66;5094905;28;20051;-56
2021/05/26 05:31:59;;;;;;;6.70;4.40;;;;;;;34.52;21.68;94749.22;5076957;28;20048;-51
2021/05/26 05:34:26;;;;;;;7.18;4.57;;;;;;;34.22;21.76;94747.69;5094475;28;20044;-67
2021/05/26 05:36:54;;;;;;;7.15;4.40;;;;;;;34.22;21.67;94750.41;5085324;28;20052;-51
2021/05/26 05:39:24;;;;;;;7.78;4.30;;;;;;;34.61;21.20;94746.63;5093618;28;20362;-66
2021/05/26 05:41:51;;;;;;;9.30;4.53;;;;;;;34.13;21.74;94750.28;5094641;28;20048;-53
2021/05/26 05:44:18;;;;;;;5.82;4.25;;;;;;;34.52;21.58;94749.22;5094488;28;20067;-54
2021/05/26 05:46:45;;;;;;;4.93;4.40;;;;;;;34.19;21.78;94756.69;5094567;28;20051;-55
2021/05/26 05:49:14;;;;;;;6.85;4.13;;;;;;;34.45;21.54;94760.28;5094803;28;20048;-69
2021/05/26 05:51:41;;;;;;;5.35;3.97;;;;;;;34.46;21.01;94753.66;5094488;28;20048;-55
2021/05/26 05:54:09;;;;;;;4.90;3.65;;;;;;;34.21;21.25;94765.16;5097476;28;20056;-63
2021/05/26 05:56:36;;;;;;;6.32;4.10;;;;;;;34.97;20.31;94756.47;5076074;28;20056;-54
2021/05/26 05:59:03;;;;;;;7.53;4.10;;;;;;;35.11;20.33;94750.59;5094543;28;20635;-51
2021/05/26 06:01:31;;;;;;;8.70;3.70;;;;;;;35.21;20.19;94755.72;5094218;28;20039;-51
2021/05/26 06:03:58;;;;;;;5.75;3.50;;;;;;;34.76;20.60;94755.88;5078442;28;20056;-66
2021/05/26 06:06:26;;;;;;;6.03;4.00;;;;;;;35.41;20.17;94758.22;5094565;28;20056;-51
2021/05/26 06:08:53;;;;;;;6.13;3.88;;;;;;;34.35;21.43;94750.47;5094381;28;20473;-69
2021/05/26 06:11:21;;;;;;;4.80;3.85;;;;;;;35.45;19.87;94761.59;5076627;28;20075;-51
2021/05/26 06:13:49;;;;;;;4.30;3.90;;;;;;;35.28;20.09;94760.16;5094047;28;20052;-52
2021/05/26 06:16:17;;;;;;;3.70;3.30;;;;;;;34.55;20.75;94759.22;5097693;28;20052;-51
2021/05/26 06:18:44;;;;;;;4.25;3.17;;;;;;;35.88;19.75;94764.88;5098362;28;20052;-59
2021/05/26 06:21:11;;;;;;;6.70;4.55;;;;;;;36.35;19.05;94751.22;5077693;28;20163;-52
2021/05/26 06:23:42;;;;;;;4.33;3.40;;;;;;;35.91;19.63;94756.59;5065280;28;20044;-51
2021/05/26 06:26:09;;;;;;;4.53;3.42;;;;;;;34.72;20.72;94752.50;5097302;28;20055;-53
2021/05/26 06:28:36;;;;;;;6.25;3.10;;;;;;;35.21;19.98;94754.94;5098173;28;20044;-52
2021/05/26 06:31:03;;;;;;;6.88;3.40;;;;;;;35.27;20.13;94761.34;5098119;28;20047;-50
2021/05/26 06:33:31;;;;;;;6.10;3.40;;;;;;;35.29;19.68;94763.63;5098090;28;20040;-50
2021/05/26 06:35:59;;;;;;;6.50;3.05;;;;;;;34.72;20.30;94757.94;5079277;28;20067;-51
2021/05/26 06:38:26;;;;;;;3.80;3.10;;;;;;;35.18;19.70;94761.25;5097444;28;20044;-65
2021/05/26 06:40:53;;;;;;;4.88;2.80;;;;;;;35.39;19.37;94765.28;5097986;28;20052;-50
2021/05/26 06:43:20;;;;;;;4.90;2.80;;;;;;;34.73;19.99;94759.47;5098004;28;20447;-52
2021/05/26 06:45:47;;;;;;;6.10;2.85;;;;;;;34.60;19.81;94759.44;5097358;28;20052;-57
2021/05/26 06:48:15;;;;;;;5.10;3.20;;;;;;;34.61;20.26;94760.19;5098110;28;20044;-56
2021/05/26 06:50:42;;;;;;;5.38;2.97;;;;;;;35.05;19.65;94752.34;5097952;28;20036;-62
2021/05/26 06:53:09;;;;;;;6.13;3.38;;;;;;;34.55;19.92;94749.09;5080261;28;20454;-60
2021/05/26 06:55:36;;;;;;;3.88;3.13;;;;;;;34.38;20.42;94749.63;5101707;28;20351;-61
2021/05/26 06:58:04;;;;;;;4.00;3.20;;;;;;;35.17;19.59;94746.16;5097378;28;20048;-64
2021/05/26 07:00:34;;;;;;;7.25;3.47;;;;;;;34.82;19.96;94740.56;5097628;28;20044;-52
2021/05/26 07:03:03;;;;;;;6.78;3.38;;;;;;;34.68;20.10;94743.72;5096531;28;20048;-51
2021/05/26 07:05:32;;;;;;;3.83;2.97;;;;;;;34.76;20.15;94745.03;5097279;28;20052;-52
2021/05/26 07:08:00;;;;;;;4.82;3.22;;;;;;;34.84;20.32;94743.63;5096861;28;20055;-58
2021/05/26 07:10:27;;;;;;;5.10;3.17;;;;;;;34.71;20.32;94740.13;5097547;28;20426;-52
2021/05/26 07:12:54;;;;;;;6.90;3.17;;;;;;;35.25;19.54;94742.00;5097334;28;20051;-55
2021/05/26 07:15:22;;;;;;;4.20;3.28;;;;;;;35.12;20.05;94747.44;5083410;28;20052;-57
2021/05/26 07:17:49;;;;;;;6.18;3.17;;;;;;;35.45;19.91;94739.84;5093364;28;20044;-53
2021/05/26 07:20:17;;;;;;;5.32;3.10;;;;;;;34.90;20.36;94738.44;5079288;28;20044;-57
2021/05/26 07:22:44;;;;;;;6.07;3.00;;;;;;;35.19;20.12;94741.81;5097162;28;20059;-59
2021/05/26 07:25:13;;;;;;;3.65;2.88;;;;;;;35.20;20.11;94731.69;5078502;28;20048;-53
2021/05/26 07:27:40;;;;;;;5.03;3.03;;;;;;;35.41;20.11;94733.78;5096052;28;20055;-51
2021/05/26 07:30:08;;;;;;;6.72;3.05;;;;;;;35.73;19.62;94740.09;5097096;28;20050;-51
2021/05/26 07:32:35;;;;;;;8.40;3.33;;;;;;;35.83;19.35;94733.56;5096949;28;20040;-53
2021/05/26 07:35:03;;;;;;;3.67;2.70;;;;;;;35.71;19.42;94737.06;5096723;28;20374;-49
2021/05/26 07:37:30;;;;;;;3.92;2.78;;;;;;;35.06;20.53;94737.56;5096761;28;20070;-51
2021/05/26 07:39:57;;;;;;;5.07;2.75;;;;;;;35.54;19.71;94739.16;5079164;28;20054;-51
2021/05/26 07:42:24;;;;;;;7.53;4.63;;;;;;;36.02;19.75;94740.69;5096617;28;20044;-52
2021/05/26 07:44:51;;;;;;;5.75;4.20;;;;;;;35.82;19.63;94726.56;5096462;28;20055;-52
2021/05/26 07:47:18;;;;;;;8.20;4.22;;;;;;;36.20;19.27;94728.44;5096690;28;20044;-52
2021/05/26 07:49:46;;;;;;;4.85;4.22;;;;;;;35.70;19.67;94727.38;5096742;28;20051;-53
2021/05/26 07:52:19;;;;;;;5.20;3.42;;;;;;;35.71;19.92;94737.06;5093490;28;20044;-50
2021/05/26 07:54:49;;;;;;;5.70;3.10;;;;;;;36.03;19.57;94725.88;5090007;28;20370;-52
2021/05/26 07:57:17;;;;;;;9.67;3.87;;;;;;;36.16;18.85;94733.97;5096223;28;20059;-50
2021/05/26 07:59:45;;;;;;;3.97;2.97;;;;;;;36.16;18.79;94723.09;5078670;28;20039;-66
2021/05/26 08:02:12;;;;;;;5.53;4.57;;;;;;;36.30;18.91;94725.34;5078366;28;20453;-51
2021/05/26 08:04:40;;;;;;;5.95;4.60;;;;;;;36.33;18.69;94726.41;5096117;28;20109;-50
2021/05/26 08:07:10;;;;;;;8.15;7.32;;;;;;;35.88;19.41;94727.56;5096070;28;20059;-50
2021/05/26 08:09:38;;;;;;;6.28;4.72;;;;;;;36.07;19.08;94723.78;5096369;28;20055;-52
2021/05/26 08:12:08;;;;;;;8.27;5.40;;;;;;;36.49;18.50;94726.22;5096352;28;20040;-52
2021/05/26 08:14:36;;;;;;;4.72;4.18;;;;;;;36.44;18.74;94721.34;5095911;28;20573;-50
2021/05/26 08:17:04;;;;;;;8.77;4.75;;;;;;;36.46;18.99;94720.91;5095732;28;20363;-51
2021/05/26 08:19:31;;;;;;;5.25;4.05;;;;;;;36.13;19.37;94719.28;5096214;28;20366;-57
2021/05/26 08:21:58;;;;;;;5.82;4.60;;;;;;;36.75;18.93;94713.94;5095446;28;20048;-69
2021/05/26 08:24:25;;;;;;;4.57;3.67;;;;;;;37.12;18.49;94714.09;5095131;28;20043;-52
2021/05/26 08:26:53;;;;;;;5.72;3.80;;;;;;;36.44;19.54;94716.66;5095828;28;20371;-53
2021/05/26 08:29:22;;;;;;;3.88;3.47;;;;;;;36.29;19.15;94710.19;5091069;28;20051;-53
2021/05/26 08:31:49;;;;;;;5.35;3.33;;;;;;;37.16;18.65;94703.06;5095876;28;20040;-52
2021/05/26 08:34:16;;;;;;;7.75;3.80;;;;;;;37.64;17.86;94704.25;5093776;28;20043;-56
2021/05/26 08:36:43;;;;;;;5.95;4.15;;;;;;;36.85;18.65;94703.13;5095539;28;20039;-55
2021/05/26 08:39:11;;;;;;;9.20;3.60;;;;;;;36.42;19.13;94701.97;5095703;28;20082;-54
2021/05/26 08:41:38;;;;;;;6.22;3.47;;;;;;;36.89;18.99;94701.75;5095477;28;20055;-55
2021/05/26 08:44:07;;;;;;;8.38;5.38;;;;;;;36.94;19.18;94700.41;5098854;28;20051;-57
2021/05/26 08:46:36;;;;;;;6.50;4.28;;;;;;;37.50;18.51;94688.47;5095307;28;20039;-54
2021/05/26 08:49:04;;;;;;;4.63;3.45;;;;;;;37.08;19.33;94691.69;5095626;28;20055;-57
2021/05/26 08:51:32;;;;;;;4.45;3.00;;;;;;;37.39;18.99;94694.34;5095451;28;20036;-54
2021/05/26 08:53:59;;;;;;;6.03;4.47;;;;;;;38.08;18.21;94693.06;5094493;28;20056;-63
2021/05/26 08:56:26;;;;;;;7.20;3.72;;;;;;;37.42;18.56;94703.59;5092563;28;20447;-54
2021/05/26 08:58:55;;;;;;;5.47;3.40;;;;;;;37.49;18.41;94697.88;5095610;28;20048;-58
2021/05/26 09:01:22;;;;;;;6.35;3.90;;;;;;;37.53;18.96;94698.47;5095179;28;20360;-54
2021/05/26 09:03:50;;;;;;;4.32;3.28;;;;;;;37.62;18.82;94695.75;5095122;28;20047;-54
2021/05/26 09:06:18;;;;;;;4.60;4.20;;;;;;;38.16;18.23;94695.00;5095053;28;20048;-56
2021/05/26 09:08:52;;;;;;;6.47;3.75;;;;;;;37.88;18.73;94686.09;5095352;28;20469;-55
2021/05/26 09:11:36;;;;;;;6.63;4.20;;;;;;;37.76;18.53;94694.44;5094453;28;20078;-69
2021/05/26 09:14:13;;;;;;;6.18;4.03;;;;;;;37.68;19.02;94680.31;5081596;28;20052;-56
2021/05/26 09:16:40;;;;;;;8.73;6.60;;;;;;;38.15;18.75;94684.56;5095144;28;20052;-59
2021/05/26 09:19:11;;;;;;;9.65;7.65;;;;;;;38.29;18.25;94680.47;5095074;28;20048;-56
2021/05/26 09:21:55;;;;;;;8.20;5.60;;;;;;;38.08;18.40;94674.72;5094789;28;20048;-53
2021/05/26 09:24:22;;;;;;;6.47;4.80;;;;;;;38.09;18.35;94672.75;5111505;28;20043;-74
2021/05/26 09:27:00;;;;;;;5.40;4.30;;;;;;;38.47;18.02;94672.22;5110308;28;20063;-54
2021/05/26 09:29:40;;;;;;;28.48;6.05;;;;;;;39.72;17.08;94676.03;5095016;28;20047;-56
2021/05/26 09:32:22;;;;;;;27.35;5.35;;;;;;;39.76;16.96;94673.88;5075171;28;20477;-59
2021/05/26 09:34:57;;;;;;;23.25;5.65;;;;;;;39.58;17.47;94668.56;5086988;28;20403;-60
2021/05/26 09:37:31;;;;;;;18.60;4.50;;;;;;;39.57;17.49;94664.31;5093186;28;20055;-53
2021/05/26 09:40:09;;;;;;;11.32;4.65;;;;;;;38.81;18.16;94655.44;5097561;28;20060;-58
2021/05/26 09:42:38;;;;;;;9.30;4.13;;;;;;;38.97;18.01;94657.03;5074479;28;20044;-57
2021/05/26 09:45:15;;;;;;;15.05;3.85;;;;;;;39.31;17.99;94657.78;5074968;28;20047;-64
2021/05/26 09:47:50;;;;;;;10.50;3.95;;;;;;;38.69;18.13;94650.19;5085234;28;20493;-65
2021/05/26 09:50:27;;;;;;;7.30;3.72;;;;;;;39.07;17.74;94653.06;5094146;28;20048;-72
2021/05/26 09:53:02;;;;;;;6.15;3.70;;;;;;;38.83;18.07;94646.78;5093625;28;20044;-60
2021/05/26 09:55:34;;;;;;;5.95;3.40;;;;;;;38.25;18.39;94643.16;5093055;28;20048;-56
2021/05/26 09:58:02;;;;;;;6.32;3.35;;;;;;;39.87;16.94;94643.25;5094988;28;20327;-63
2021/05/26 10:00:30;;;;;;;7.65;3.50;;;;;;;39.31;17.69;94646.84;5075180;28;20059;-55
2021/05/26 10:02:58;;;;;;;6.53;3.33;;;;;;;39.74;18.04;94645.47;5075666;28;20048;-62
2021/05/26 10:05:25;;;;;;;13.13;4.35;;;;;;;39.28;18.51;94642.28;5094389;28;20354;-57
2021/05/26 10:08:14;;;;;;;8.75;3.85;;;;;;;38.62;19.25;94631.38;5098253;28;20378;-54
2021/05/26 10:10:54;;;;;;;6.82;3.83;;;;;;;38.66;19.06;94634.72;5093578;28;20048;-56
2021/05/26 10:13:25;;;;;;;6.32;3.92;;;;;;;38.53;19.64;94619.28;5076616;28;20055;-54
2021/05/26 10:15:54;;;;;;;6.90;4.25;;;;;;;37.42;20.77;94616.38;5061955;28;20052;-55
2021/05/26 10:18:22;;;;;;;5.07;3.65;;;;;;;37.97;20.83;94609.69;5094160;28;20052;-54
2021/05/26 10:20:49;;;;;;;8.15;4.05;;;;;;;38.47;18.46;94607.44;5092934;28;20052;-55
2021/05/26 10:23:20;;;;;;;4.90;3.67;;;;;;;38.48;18.27;94608.97;5057861;28;20044;-54
2021/05/26 10:25:48;;;;;;;5.25;3.80;;;;;;;38.63;18.31;94605.59;5078359;28;20060;-66
2021/05/26 10:28:30;;;;;;;6.15;4.35;;;;;;;38.80;17.75;94609.47;5085151;28;20060;-63
2021/05/26 10:31:02;;;;;;;12.27;9.70;;;;;;;38.53;19.41;94600.16;5094007;28;20052;-54
2021/05/26 10:33:50;;;;;;;7.78;4.82;;;;;;;38.43;20.17;94593.22;5078059;28;20083;-52
2021/05/26 10:36:18;;;;;;;7.97;6.68;;;;;;;38.17;19.23;94594.81;5077141;28;20056;-52
2021/05/26 10:38:57;;;;;;;5.85;5.18;;;;;;;38.65;20.20;94589.50;5093857;28;20059;-53
2021/05/26 10:41:25;;;;;;;12.32;9.98;;;;;;;38.45;18.80;94579.84;5075634;28;20040;-53
2021/05/26 10:43:57;;;;;;;7.03;6.25;;;;;;;38.82;18.49;94579.72;5082224;28;20055;-42
2021/05/26 10:46:37;;;;;;;8.77;4.80;;;;;;;37.93;19.94;94573.63;5102411;28;20043;-68
2021/05/26 10:49:11;;;;;;;6.82;4.78;;;;;;;38.40;19.10;94566.84;5096753;28;20044;-64
2021/05/26 10:51:53;;;;;;;7.13;4.97;;;;;;;38.85;18.73;94563.16;5105809;28;20046;-70
2021/05/26 10:54:38;;;;;;;8.15;4.60;;;;;;;38.23;19.79;94563.69;5113653;28;20469;-65
2021/05/26 10:57:07;;;;;;;6.70;4.80;;;;;;;38.50;20.12;94553.88;5092869;28;20473;-69
2021/05/26 10:59:35;;;;;;;5.72;4.75;;;;;;;37.71;20.94;94545.00;5093916;28;20048;-67
2021/05/26 11:02:07;;;;;;;9.35;5.30;;;;;;;38.07;20.54;94547.69;5077205;28;20044;-68
2021/05/26 11:04:36;;;;;;;8.15;4.90;;;;;;;37.85;20.54;94541.69;5096952;28;20122;-66
2021/05/26 11:07:24;;;;;;;10.23;5.03;;;;;;;37.53;20.68;94540.34;5097711;28;20055;-69
2021/05/26 11:10:00;;;;;;;7.35;4.88;;;;;;;37.71;20.74;94540.31;5097522;28;20051;-69
2021/05/26 11:12:28;;;;;;;6.53;4.63;;;;;;;38.95;19.19;94543.94;5095904;28;20071;-71
2021/05/26 11:14:56;;;;;;;6.75;5.03;;;;;;;38.68;19.89;94531.97;5083353;28;20039;-70
2021/05/26 11:17:27;;;;;;;5.90;4.55;;;;;;;39.38;18.85;94540.59;5085305;28;20055;-69
2021/05/26 11:20:11;;;;;;;7.65;4.85;;;;;;;38.40;19.88;94525.88;5097379;28;20052;-69
2021/05/26 11:22:38;;;;;;;7.30;5.35;;;;;;;38.13;20.63;94520.50;5097216;28;20054;-58
2021/05/26 11:25:09;;;;;;;6.32;4.97;;;;;;;38.52;20.60;94518.72;5097022;28;20075;-69
2021/05/26 11:27:36;;;;;;;6.57;5.17;;;;;;;38.21;20.11;94516.25;5096828;28;20048;-69
2021/05/26 11:30:05;;;;;;;6.68;5.13;;;;;;;37.89;20.40;94513.00;5111346;28;20047;-69
2021/05/26 11:32:32;;;;;;;7.05;5.28;;;;;;;38.12;19.78;94510.81;5117386;28;20052;-70
2021/05/26 11:35:03;;;;;;;7.47;5.10;;;;;;;39.36;18.87;94506.75;5112655;28;20050;-65
2021/05/26 11:37:40;;;;;;;5.63;5.03;;;;;;;39.73;17.69;94507.94;5086379;28;20056;-65
2021/05/26 11:40:23;;;;;;;9.75;5.07;;;;;;;38.82;19.07;94503.97;5076706;28;20063;-65
2021/05/26 11:42:52;;;;;;;10.75;4.68;;;;;;;39.56;18.85;94495.97;5077101;28;20052;-63
2021/05/26 11:45:21;;;;;;;5.93;4.97;;;;;;;38.91;19.04;94489.47;5103701;28;20045;-68
2021/05/26 11:47:51;;;;;;;7.28;4.85;;;;;;;39.17;18.65;94485.06;5081152;28;20059;-55
2021/05/26 11:50:20;;;;;;;7.55;5.20;;;;;;;39.02;18.89;94484.22;5096798;28;20067;-52
2021/05/26 11:52:49;;;;;;;7.03;5.32;;;;;;;38.83;18.22;94482.88;5096461;28;20036;-53
2021/05/26 11:55:27;;;;;;;6.53;5.18;;;;;;;39.50;18.10;94477.91;5094312;28;20051;-59
2021/05/26 11:57:55;;;;;;;8.35;4.72;;;;;;;39.01;19.31;94477.25;5081691;28;20055;-64
2021/05/26 12:00:27;;;;;;;6.72;5.35;;;;;;;38.82;19.78;94470.44;5080194;28;20075;-66
2021/05/26 12:02:58;;;;;;;6.13;5.00;;;;;;;39.59;19.07;94473.16;5076015;28;20044;-65
2021/05/26 12:05:41;;;;;;;9.55;5.32;;;;;;;38.46;20.00;94457.75;5083206;28;20056;-67
2021/05/26 12:08:18;;;;;;;6.57;5.53;;;;;;;39.80;18.42;94449.34;5096184;28;20459;-65
2021/05/26 12:10:52;;;;;;;10.27;5.93;;;;;;;39.09;18.66;94451.13;5084410;28;20062;-69
2021/05/26 12:13:28;;;;;;;12.23;10.93;;;;;;;39.38;18.32;94449.63;5095691;28;20036;-69
2021/05/26 12:16:01;;;;;;;13.02;9.90;;;;;;;39.48;18.37;94442.84;5077224;28;20051;-68
2021/05/26 12:18:28;;;;;;;7.50;6.30;;;;;;;38.33;19.80;94446.31;5086626;28;20044;-64
2021/05/26 12:20:56;;;;;;;8.18;6.20;;;;;;;39.17;18.90;94454.97;5075903;28;20040;-67
2021/05/26 12:23:34;;;;;;;8.50;5.95;;;;;;;39.10;18.80;94436.22;5075056;28;20056;-56
2021/05/26 12:26:19;;;;;;;9.20;5.93;;;;;;;39.25;18.99;94438.19;5075782;28;20059;-67
2021/05/26 12:28:46;;;;;;;8.13;5.75;;;;;;;39.30;18.95;94432.06;5089020;28;20051;-67
2021/05/26 12:31:14;;;;;;;7.43;5.13;;;;;;;39.79;18.14;94431.41;5085890;28;20049;-62
2021/05/26 12:33:52;;;;;;;9.00;5.18;;;;;;;39.97;18.38;94428.50;5075623;28;20045;-59
2021/05/26 12:36:24;;;;;;;11.77;5.78;;;;;;;39.74;18.52;94432.84;5075470;28;20387;-56
2021/05/26 12:38:58;;;;;;;10.65;5.50;;;;;;;40.55;17.67;94426.03;5089094;28;20046;-64
2021/05/26 12:41:34;;;;;;;8.52;5.43;;;;;;;38.95;18.87;94424.47;5083139;28;20051;-56
2021/05/26 12:44:09;;;;;;;6.68;5.55;;;;;;;40.23;17.54;94414.16;5085990;28;20063;-62
2021/05/26 12:46:55;;;;;;;6.65;5.70;;;;;;;40.14;18.03;94415.06;5091466;28;20051;-57
2021/05/26 12:52:12;;;;;;;11.13;5.53;;;;;;;40.18;18.01;94404.66;5095776;28;20040;-68
2021/05/26 12:54:44;;;;;;;10.30;6.30;;;;;;;39.14;18.78;94412.19;5111249;28;20055;-67
2021/05/26 12:57:27;;;;;;;8.60;5.45;;;;;;;39.38;19.18;94403.16;5095407;28;20378;-67
2021/05/26 13:00:03;;;;;;;7.47;5.65;;;;;;;39.83;19.00;94392.94;5094585;28;20047;-63
2021/05/26 13:02:31;;;;;;;8.07;5.88;;;;;;;39.36;19.46;94392.69;5095238;28;20126;-54
2021/05/26 13:04:59;;;;;;;10.40;6.28;;;;;;;39.14;19.68;94387.59;5092814;28;20044;-58
2021/05/26 13:07:34;;;;;;;8.32;5.90;;;;;;;39.65;18.76;94386.47;5095179;28;20047;-58
2021/05/26 13:10:18;;;;;;;7.00;5.53;;;;;;;39.25;19.64;94380.81;5095438;28;20500;-65
2021/05/26 13:12:46;;;;;;;11.98;5.80;;;;;;;39.48;18.98;94377.19;5094856;28;20047;-55
2021/05/26 13:15:33;;;;;;;7.07;6.03;;;;;;;38.83;19.39;94379.06;5090779;28;20439;-61
2021/05/26 13:18:02;;;;;;;11.85;6.00;;;;;;;39.15;19.30;94372.69;5075486;28;20063;-65
2021/05/26 13:20:37;;;;;;;7.97;5.43;;;;;;;39.90;19.01;94374.13;5057082;28;20481;-65